Time;durP1;ratioP1;P1;durP2;ratioP2;P2;SDS_P1;SDS_P2;PMS_P1;PMS_P2;Temp;Humidity;BMP_temperature;BMP_pressure;BME280_temperature;BME280_humidity;BME280_pressure;Samples;Min_cycle;Max_cycle;Signal;HPM_P1;HPM_P2
2022/07/02 00:00:56;;;;;;;1.67;1.45;;;;;;;10.09;100.00;99073.19;5125311;27;20019;-70
2022/07/02 00:03:31;;;;;;;2.80;1.42;;;;;;;10.09;100.00;99075.81;5125665;28;20023;-70
2022/07/02 00:05:59;;;;;;;2.33;1.50;;;;;;;10.07;100.00;99075.00;5123700;28;20039;-70
2022/07/02 00:08:26;;;;;;;5.78;1.48;;;;;;;9.86;100.00;99075.16;5124240;28;20026;-70
2022/07/02 00:10:53;;;;;;;1.90;1.17;;;;;;;9.77;100.00;99075.25;5125161;28;20032;-70
2022/07/02 00:13:20;;;;;;;6.20;1.55;;;;;;;9.76;100.00;99076.13;5125690;28;20020;-70
2022/07/02 00:15:46;;;;;;;3.67;1.30;;;;;;;9.72;100.00;99077.94;5124935;28;20019;-70
2022/07/02 00:18:12;;;;;;;1.60;1.40;;;;;;;9.87;100.00;99082.19;5125299;27;20019;-70
2022/07/02 00:20:38;;;;;;;5.05;1.30;;;;;;;9.90;100.00;99082.16;5123836;28;20318;-71
2022/07/02 00:23:04;;;;;;;4.93;1.55;;;;;;;9.94;100.00;99083.88;5124313;27;21166;-70
2022/07/02 00:25:37;;;;;;;9.05;1.67;;;;;;;9.93;100.00;99082.09;5126430;28;20054;-70
2022/07/02 00:28:05;;;;;;;23.38;2.05;;;;;;;9.80;100.00;99072.59;5125589;28;20023;-70
2022/07/02 00:30:31;;;;;;;3.78;1.38;;;;;;;9.81;100.00;99076.97;5122720;27;20027;-70
2022/07/02 00:32:58;;;;;;;1.95;1.30;;;;;;;9.82;100.00;99076.09;5124918;28;20463;-70
2022/07/02 00:35:24;;;;;;;4.15;1.50;;;;;;;9.74;100.00;99070.91;5125485;28;20031;-70
2022/07/02 00:37:50;;;;;;;4.05;1.33;;;;;;;9.76;100.00;99077.03;5124809;28;20072;-70
2022/07/02 00:40:16;;;;;;;2.72;1.08;;;;;;;9.69;100.00;99071.81;5125283;28;20302;-71
2022/07/02 00:42:43;;;;;;;1.45;1.30;;;;;;;9.49;100.00;99073.75;5124886;28;20023;-71
2022/07/02 00:45:09;;;;;;;1.27;1.15;;;;;;;9.42;100.00;99072.03;5125040;28;20094;-71
2022/07/02 00:47:36;;;;;;;3.17;1.60;;;;;;;9.50;100.00;99080.75;5124813;28;20090;-71
2022/07/02 00:50:06;;;;;;;3.38;1.30;;;;;;;9.60;100.00;99078.03;5125072;28;20098;-71
2022/07/02 00:52:31;;;;;;;2.08;1.30;;;;;;;9.57;100.00;99071.94;5124599;27;20034;-71
2022/07/02 00:54:57;;;;;;;3.05;1.42;;;;;;;9.62;100.00;99080.66;5125614;27;20020;-71
2022/07/02 00:57:22;;;;;;;4.82;1.20;;;;;;;9.54;100.00;99077.22;5124183;27;20087;-71
2022/07/02 00:59:47;;;;;;;6.25;1.23;;;;;;;9.57;100.00;99077.19;5124910;28;20023;-71
2022/07/02 01:02:14;;;;;;;1.75;1.15;;;;;;;9.55;100.00;99074.56;5124793;27;20034;-71
2022/07/02 01:04:42;;;;;;;5.05;1.23;;;;;;;9.51;100.00;99077.22;5125293;28;20023;-71
2022/07/02 01:07:11;;;;;;;5.15;1.40;;;;;;;9.42;100.00;99078.19;5122288;28;20031;-71
2022/07/02 01:12:24;;;;;;;1.70;1.50;;;;;;;9.21;100.00;99075.69;5124584;28;20025;-71
2022/07/02 01:14:51;;;;;;;6.70;1.35;;;;;;;9.16;100.00;99069.63;5124298;27;20099;-71
2022/07/02 01:17:16;;;;;;;4.55;1.52;;;;;;;9.21;100.00;99072.22;5124304;27;20020;-71
2022/07/02 01:19:42;;;;;;;2.22;1.42;;;;;;;9.23;100.00;99083.56;5124431;27;20031;-71
2022/07/02 01:22:10;;;;;;;1.48;1.30;;;;;;;9.30;100.00;99072.16;5116601;28;20215;-71
2022/07/02 01:24:35;;;;;;;9.45;1.70;;;;;;;9.29;100.00;99076.53;5124207;28;20085;-70
2022/07/02 01:27:01;;;;;;;1.45;1.20;;;;;;;9.12;100.00;99081.03;5123996;28;20083;-70
2022/07/02 01:29:26;;;;;;;2.47;1.30;;;;;;;9.17;100.00;99075.75;5123807;28;20027;-70
2022/07/02 01:31:52;;;;;;;2.33;1.30;;;;;;;9.25;100.00;99073.94;5124271;27;20031;-70
2022/07/02 01:34:17;;;;;;;3.25;1.40;;;;;;;9.17;100.00;99076.59;5123799;27;20023;-70
2022/07/02 01:36:42;;;;;;;6.53;1.75;;;;;;;9.17;100.00;99081.00;5124364;28;20020;-70
2022/07/02 01:39:08;;;;;;;8.88;1.75;;;;;;;9.11;100.00;99067.91;5123454;28;20023;-70
2022/07/02 01:41:39;;;;;;;2.47;1.20;;;;;;;8.98;100.00;99063.63;5123541;28;20266;-70
2022/07/02 01:44:08;;;;;;;2.22;1.38;;;;;;;8.95;100.00;99068.91;5123615;28;20346;-70
2022/07/02 01:46:34;;;;;;;2.42;1.35;;;;;;;8.98;100.00;99068.88;5123859;28;20023;-70
2022/07/02 01:49:00;;;;;;;3.50;1.52;;;;;;;9.00;100.00;99061.84;5123879;28;20019;-70
2022/07/02 01:51:25;;;;;;;4.60;1.40;;;;;;;8.86;100.00;99061.06;5124284;27;20030;-70
2022/07/02 01:53:51;;;;;;;2.20;1.10;;;;;;;8.77;100.00;99070.72;5124160;28;20024;-70
2022/07/02 01:56:16;;;;;;;1.77;1.40;;;;;;;8.77;100.00;99073.34;5123781;28;20020;-71
2022/07/02 01:58:42;;;;;;;1.42;1.10;;;;;;;8.69;100.00;99072.53;5123641;28;20019;-70
2022/07/02 02:01:07;;;;;;;2.30;1.30;;;;;;;8.66;100.00;99071.66;5123429;28;20214;-70
2022/07/02 02:03:33;;;;;;;4.80;1.00;;;;;;;8.59;100.00;99065.59;5124227;27;20023;-70
2022/07/02 02:05:58;;;;;;;5.53;1.30;;;;;;;8.65;100.00;99070.81;5122102;28;20089;-70
2022/07/02 02:08:23;;;;;;;3.45;1.65;;;;;;;8.75;100.00;99069.00;5123420;28;20019;-70
2022/07/02 02:10:50;;;;;;;2.03;1.33;;;;;;;8.82;100.00;99072.47;5123643;28;20335;-70
2022/07/02 02:13:15;;;;;;;2.47;1.40;;;;;;;8.70;100.00;99069.03;5123051;28;20104;-70
2022/07/02 02:15:41;;;;;;;6.78;1.40;;;;;;;8.45;100.00;99067.38;5123791;28;20024;-70
2022/07/02 02:18:06;;;;;;;2.90;1.30;;;;;;;8.48;100.00;99072.63;5123417;28;20016;-70
2022/07/02 02:20:32;;;;;;;3.78;1.38;;;;;;;8.55;100.00;99074.31;5122872;28;20043;-70
2022/07/02 02:22:57;;;;;;;4.07;1.40;;;;;;;8.47;100.00;99070.88;5123349;28;20020;-70
2022/07/02 02:25:23;;;;;;;3.67;2.13;;;;;;;8.31;100.00;99058.72;5122817;28;20111;-70
2022/07/02 02:27:50;;;;;;;1.30;1.20;;;;;;;8.29;100.00;99062.22;5123276;28;20024;-70
2022/07/02 02:30:15;;;;;;;5.03;1.45;;;;;;;8.24;100.00;99062.25;5123401;28;20034;-70
2022/07/02 02:32:40;;;;;;;1.42;1.15;;;;;;;8.34;100.00;99056.06;5123268;28;20023;-70
2022/07/02 02:35:06;;;;;;;1.13;1.02;;;;;;;8.43;100.00;99063.03;5122739;28;20030;-70
2022/07/02 02:37:32;;;;;;;1.95;1.30;;;;;;;8.45;100.00;99056.03;5122452;27;20027;-70
2022/07/02 02:39:57;;;;;;;6.50;1.27;;;;;;;8.49;100.00;99058.63;5122654;28;20260;-70
2022/07/02 02:42:23;;;;;;;3.83;1.40;;;;;;;8.47;100.00;99065.63;5122713;28;20135;-70
2022/07/02 02:44:48;;;;;;;9.00;1.77;;;;;;;8.39;100.00;99062.16;5122598;28;20050;-70
2022/07/02 02:47:13;;;;;;;2.05;1.42;;;;;;;8.33;100.00;99067.41;5122667;28;20207;-70
2022/07/02 02:49:39;;;;;;;5.68;1.67;;;;;;;8.27;100.00;99069.22;5123025;28;20094;-70
2022/07/02 02:52:04;;;;;;;1.73;1.35;;;;;;;8.30;100.00;99067.47;5122814;28;20026;-70
2022/07/02 02:54:30;;;;;;;2.92;1.42;;;;;;;8.32;100.00;99077.91;5122697;28;20070;-70
2022/07/02 02:56:56;;;;;;;2.60;1.33;;;;;;;8.29;100.00;99065.69;5122965;28;20019;-70
2022/07/02 02:59:21;;;;;;;2.88;1.30;;;;;;;8.22;100.00;99074.47;5123079;28;20028;-70
2022/07/02 03:01:47;;;;;;;8.55;1.40;;;;;;;8.27;100.00;99071.84;5122880;28;20027;-70
2022/07/02 03:04:12;;;;;;;2.55;1.50;;;;;;;8.32;100.00;99081.41;5123304;28;20026;-70
2022/07/02 03:06:37;;;;;;;4.25;1.17;;;;;;;8.31;100.00;99084.94;5122221;28;20031;-70
2022/07/02 03:09:03;;;;;;;3.47;1.10;;;;;;;8.34;100.00;99084.94;5123087;28;20043;-70
2022/07/02 03:11:28;;;;;;;2.60;1.55;;;;;;;8.31;100.00;99084.94;5122848;28;20023;-70
2022/07/02 03:13:54;;;;;;;1.45;1.00;;;;;;;8.29;100.00;99081.44;5122321;28;20339;-70
2022/07/02 03:16:19;;;;;;;1.58;1.10;;;;;;;8.06;100.00;99077.97;5122262;28;20055;-70
2022/07/02 03:18:46;;;;;;;1.05;0.95;;;;;;;8.05;100.00;99083.22;5123190;28;20031;-70
2022/07/02 03:21:11;;;;;;;3.75;1.20;;;;;;;8.14;100.00;99086.69;5122429;28;20028;-70
2022/07/02 03:23:37;;;;;;;2.85;1.10;;;;;;;8.17;100.00;99088.44;5123202;28;20200;-70
2022/07/02 03:26:02;;;;;;;4.88;1.13;;;;;;;8.15;100.00;99083.19;5122681;28;20144;-70
2022/07/02 03:28:27;;;;;;;2.03;1.20;;;;;;;8.12;100.00;99087.56;5122201;28;20032;-70
2022/07/02 03:30:53;;;;;;;1.92;1.10;;;;;;;8.03;100.00;99085.84;5122821;28;20131;-70
2022/07/02 03:33:18;;;;;;;4.78;1.52;;;;;;;8.06;100.00;99092.81;5122405;28;20026;-70
2022/07/02 03:35:43;;;;;;;1.10;1.00;;;;;;;8.06;100.00;99092.81;5123995;28;20019;-70
2022/07/02 03:38:09;;;;;;;1.30;1.08;;;;;;;8.02;100.00;99086.72;5132375;28;20094;-70
2022/07/02 03:40:34;;;;;;;1.40;1.30;;;;;;;8.11;100.00;99097.22;5132006;28;20088;-70
2022/07/02 03:42:59;;;;;;;2.65;1.40;;;;;;;8.11;100.00;99091.97;5122013;28;20039;-70
2022/07/02 03:45:25;;;;;;;1.10;1.00;;;;;;;8.12;100.00;99098.94;5122517;28;20027;-70
2022/07/02 03:47:50;;;;;;;3.00;1.33;;;;;;;8.01;100.00;99099.84;5122001;28;20030;-70
2022/07/02 03:50:15;;;;;;;1.73;1.30;;;;;;;8.00;100.00;99104.19;5122865;28;20043;-70
2022/07/02 03:52:41;;;;;;;1.70;1.20;;;;;;;8.07;100.00;99100.69;5122354;28;20035;-70
2022/07/02 03:55:09;;;;;;;1.92;1.15;;;;;;;8.06;100.00;99098.94;5123424;28;20019;-70
2022/07/02 03:57:35;;;;;;;5.57;1.50;;;;;;;7.97;100.00;99098.97;5122321;28;20311;-70
2022/07/02 04:00:02;;;;;;;7.47;1.85;;;;;;;8.00;100.00;99098.97;5121507;28;20019;-70
2022/07/02 04:02:28;;;;;;;5.78;1.70;;;;;;;7.96;100.00;99099.84;5123369;28;20033;-70
2022/07/02 04:04:53;;;;;;;3.28;1.40;;;;;;;8.08;100.00;99101.56;5126537;28;20019;-70
2022/07/02 04:07:19;;;;;;;1.75;1.13;;;;;;;8.12;100.00;99098.06;5125506;28;20319;-70
2022/07/02 04:09:45;;;;;;;5.88;1.40;;;;;;;8.18;100.00;99096.31;5126343;28;20334;-70
2022/07/02 04:12:10;;;;;;;1.50;1.30;;;;;;;8.24;100.00;99098.06;5125711;28;20022;-70
2022/07/02 04:14:36;;;;;;;1.38;1.20;;;;;;;8.28;100.00;99095.44;5125864;27;20337;-70
2022/07/02 04:17:01;;;;;;;3.55;1.45;;;;;;;8.31;100.00;99094.53;5125754;28;20023;-70
2022/07/02 04:19:26;;;;;;;3.67;1.52;;;;;;;8.25;100.00;99100.69;5125288;28;20027;-70
2022/07/02 04:21:52;;;;;;;2.55;1.33;;;;;;;8.18;100.00;99101.53;5125884;27;20054;-70
2022/07/02 04:24:17;;;;;;;1.92;1.20;;;;;;;8.30;100.00;99098.94;5125507;27;20115;-70
2022/07/02 04:26:42;;;;;;;2.60;1.38;;;;;;;8.38;100.00;99096.25;5125112;27;20020;-70
2022/07/02 04:29:08;;;;;;;9.23;1.20;;;;;;;8.34;100.00;99095.41;5125344;28;20277;-70
2022/07/02 04:31:33;;;;;;;3.20;1.33;;;;;;;8.36;100.00;99091.03;5125742;28;20255;-70
2022/07/02 04:33:59;;;;;;;2.67;1.42;;;;;;;8.53;100.00;99086.59;5125862;28;20304;-70
2022/07/02 04:36:24;;;;;;;2.10;1.55;;;;;;;9.59;100.00;99092.03;5125007;28;20027;-70
2022/07/02 04:38:50;;;;;;;2.55;1.35;;;;;;;11.44;96.95;99081.06;5125266;28;20019;-70
2022/07/02 04:41:15;;;;;;;1.08;0.98;;;;;;;13.03;86.43;99081.59;5125630;28;20019;-70
2022/07/02 04:43:40;;;;;;;9.07;1.10;;;;;;;14.15;78.19;99077.09;5124554;28;20079;-71
2022/07/02 04:46:06;;;;;;;3.92;0.90;;;;;;;14.48;74.29;99076.19;5125113;28;20033;-71
2022/07/02 04:48:31;;;;;;;3.05;0.85;;;;;;;15.36;72.25;99079.72;5124894;27;20023;-71
2022/07/02 04:50:57;;;;;;;7.50;0.95;;;;;;;15.87;68.67;99078.06;5125491;27;20023;-71
2022/07/02 04:53:22;;;;;;;4.22;0.82;;;;;;;16.47;68.13;99088.38;5124654;28;20042;-71
2022/07/02 04:55:47;;;;;;;14.25;0.98;;;;;;;17.08;65.69;99091.41;5124477;28;20039;-71
2022/07/02 04:58:13;;;;;;;5.20;0.60;;;;;;;17.44;65.38;99093.59;5125135;28;20065;-71
2022/07/02 05:00:38;;;;;;;2.55;0.95;;;;;;;17.54;63.57;99094.94;5124425;28;20223;-71
2022/07/02 05:03:04;;;;;;;5.43;1.27;;;;;;;17.41;63.38;99093.69;5125414;27;20327;-71
2022/07/02 05:05:29;;;;;;;3.33;0.93;;;;;;;17.78;64.03;99091.31;5124645;28;20151;-71
2022/07/02 05:07:54;;;;;;;2.15;0.85;;;;;;;18.13;62.90;99098.72;5125022;28;20357;-71
2022/07/02 05:10:20;;;;;;;4.65;0.98;;;;;;;18.40;62.66;99100.22;5124541;28;20107;-71
2022/07/02 05:12:45;;;;;;;0.95;0.80;;;;;;;18.92;61.24;99097.00;5124418;28;20248;-71
2022/07/02 05:15:10;;;;;;;3.15;1.40;;;;;;;18.97;60.84;99093.16;5123790;28;20331;-71
2022/07/02 05:17:36;;;;;;;3.47;1.10;;;;;;;19.47;60.07;99098.84;5124473;28;20015;-71
2022/07/02 05:20:01;;;;;;;3.92;1.23;;;;;;;19.13;60.41;99099.53;5123978;28;20068;-71
2022/07/02 05:22:27;;;;;;;4.85;0.88;;;;;;;19.17;61.14;99094.91;5124413;27;20384;-71
2022/07/02 05:24:52;;;;;;;3.53;0.80;;;;;;;19.96;59.57;99100.84;5124336;28;20054;-71
2022/07/02 05:27:17;;;;;;;3.83;0.90;;;;;;;19.70;59.01;99095.94;5124329;27;20023;-71
2022/07/02 05:29:43;;;;;;;11.07;0.90;;;;;;;20.37;58.97;99105.00;5123883;28;20102;-71
2022/07/02 05:32:08;;;;;;;5.68;0.90;;;;;;;20.56;58.43;99100.44;5123921;28;20019;-71
2022/07/02 05:34:34;;;;;;;5.43;0.80;;;;;;;21.11;57.10;99099.25;5124348;28;20023;-71
2022/07/02 05:36:59;;;;;;;4.13;0.77;;;;;;;21.49;56.75;99096.31;5124276;27;20338;-72
2022/07/02 05:39:25;;;;;;;3.80;1.00;;;;;;;21.69;56.34;99096.03;5123611;28;20023;-72
2022/07/02 05:41:50;;;;;;;1.42;0.85;;;;;;;21.55;56.22;99098.63;5123660;28;20019;-73
2022/07/02 05:44:15;;;;;;;2.08;1.00;;;;;;;21.36;55.61;99089.91;5123557;28;20351;-72
2022/07/02 05:46:41;;;;;;;2.22;0.80;;;;;;;21.67;55.64;99089.91;5124804;28;20016;-70
2022/07/02 05:49:06;;;;;;;3.92;0.80;;;;;;;21.96;58.07;99095.34;5123424;27;20319;-73
2022/07/02 05:51:31;;;;;;;2.83;0.98;;;;;;;22.66;55.21;99097.44;5124008;28;20024;-72
2022/07/02 05:53:57;;;;;;;2.50;0.90;;;;;;;22.35;56.29;99093.03;5123704;28;20329;-71
2022/07/02 05:56:22;;;;;;;0.75;0.75;;;;;;;22.88;53.96;99097.88;5124077;27;20019;-72
2022/07/02 05:58:47;;;;;;;5.82;1.00;;;;;;;23.06;53.80;99096.72;5123210;27;20047;-72
2022/07/02 06:01:13;;;;;;;1.63;1.00;;;;;;;23.77;53.68;99095.72;5123903;28;20028;-72
2022/07/02 06:03:38;;;;;;;4.55;1.05;;;;;;;23.85;53.96;99095.22;5123204;28;20310;-70
2022/07/02 06:08:47;;;;;;;5.50;1.10;;;;;;;24.22;52.18;99098.09;5123478;28;20030;-71
2022/07/02 06:11:14;;;;;;;4.65;1.17;;;;;;;24.65;51.11;99099.59;5119934;28;20051;-71
2022/07/02 06:13:39;;;;;;;7.40;1.55;;;;;;;25.11;51.27;99105.34;5123307;27;20206;-70
2022/07/02 06:16:05;;;;;;;3.15;0.93;;;;;;;24.74;51.03;99096.28;5123694;28;20039;-70
2022/07/02 06:18:30;;;;;;;6.72;1.10;;;;;;;24.98;51.77;99099.97;5123694;28;20043;-70
2022/07/02 06:20:56;;;;;;;5.00;1.10;;;;;;;25.20;53.26;99104.69;5122857;28;20027;-70
2022/07/02 06:23:21;;;;;;;7.32;2.65;;;;;;;24.78;52.46;99097.78;5123278;28;20050;-70
2022/07/02 06:25:48;;;;;;;3.10;1.50;;;;;;;25.52;53.15;99092.50;5122375;27;20054;-70
2022/07/02 06:28:13;;;;;;;3.65;1.08;;;;;;;25.71;52.26;99089.31;5122025;28;20215;-70
2022/07/02 06:30:39;;;;;;;6.00;1.48;;;;;;;26.00;49.69;99079.97;5124221;28;20019;-70
2022/07/02 06:33:04;;;;;;;3.67;1.10;;;;;;;26.37;50.10;99084.31;5122844;28;20086;-70
2022/07/02 06:35:29;;;;;;;35.20;6.60;;;;;;;26.24;50.34;99084.38;5122916;28;20046;-70
2022/07/02 06:37:55;;;;;;;4.55;1.42;;;;;;;26.33;50.96;99078.31;5123125;28;20019;-70
2022/07/02 06:40:20;;;;;;;11.27;1.80;;;;;;;26.97;49.60;99095.81;5123627;28;20028;-70
2022/07/02 06:42:46;;;;;;;15.65;3.65;;;;;;;27.45;49.50;99081.13;5122584;27;20051;-70
2022/07/02 06:45:11;;;;;;;10.88;2.55;;;;;;;27.73;47.36;99080.59;5122690;28;20020;-70
2022/07/02 06:47:41;;;;;;;38.30;6.72;;;;;;;27.89;47.63;99086.50;5123273;28;20043;-70
2022/07/02 06:50:07;;;;;;;7.00;1.98;;;;;;;28.63;45.57;99086.50;5122172;28;20038;-70
2022/07/02 06:52:32;;;;;;;20.35;3.80;;;;;;;28.02;46.84;99076.38;5122517;28;20060;-70
2022/07/02 06:54:58;;;;;;;19.38;4.15;;;;;;;29.16;46.91;99093.59;5123203;28;20098;-70
2022/07/02 06:57:24;;;;;;;11.18;1.98;;;;;;;28.07;47.87;99078.72;5123012;28;20345;-70
2022/07/02 06:59:50;;;;;;;7.05;2.08;;;;;;;29.67;43.74;99076.44;5121803;28;20028;-70
2022/07/02 07:02:16;;;;;;;12.10;2.83;;;;;;;29.28;47.14;99086.22;5122319;28;20226;-70
2022/07/02 07:04:42;;;;;;;8.35;2.35;;;;;;;28.71;42.83;99075.88;5120856;28;20026;-71
2022/07/02 07:07:09;;;;;;;3.25;1.17;;;;;;;28.80;42.29;99075.09;5116438;28;20031;-69
2022/07/02 07:09:35;;;;;;;3.65;0.98;;;;;;;28.29;41.61;99068.66;5120080;28;20312;-70
2022/07/02 07:12:04;;;;;;;7.63;0.98;;;;;;;27.99;42.64;99060.41;5118092;28;20020;-70
2022/07/02 07:14:29;;;;;;;4.25;1.08;;;;;;;28.05;44.22;99059.88;5122596;28;20237;-70
2022/07/02 07:16:55;;;;;;;8.35;1.95;;;;;;;28.37;43.09;99071.56;5123926;28;20015;-70
2022/07/02 07:19:20;;;;;;;3.75;1.00;;;;;;;28.54;42.05;99076.44;5119472;28;20028;-70
2022/07/02 07:21:46;;;;;;;3.28;1.30;;;;;;;27.89;43.03;99062.16;5120764;28;20023;-70
2022/07/02 07:24:11;;;;;;;7.63;1.17;;;;;;;27.78;42.56;99056.75;5122014;28;20086;-70
2022/07/02 07:26:38;;;;;;;4.45;0.98;;;;;;;28.69;42.86;99069.72;5122805;28;20043;-70
2022/07/02 07:29:06;;;;;;;5.93;1.70;;;;;;;28.52;42.50;99066.72;5122369;28;20407;-70
2022/07/02 07:31:32;;;;;;;3.92;1.00;;;;;;;29.18;39.55;99069.91;5122909;28;20064;-70
2022/07/02 07:33:58;;;;;;;3.40;1.50;;;;;;;28.08;40.48;99059.63;5122057;28;20369;-70
2022/07/02 07:36:26;;;;;;;2.65;1.33;;;;;;;28.13;40.46;99052.00;5122216;28;20028;-70
2022/07/02 07:38:52;;;;;;;2.63;1.10;;;;;;;28.63;39.56;99059.41;5124987;27;20015;-70
2022/07/02 07:41:19;;;;;;;8.18;1.33;;;;;;;29.16;38.30;99061.06;5125065;28;20046;-70
2022/07/02 07:43:45;;;;;;;3.75;1.08;;;;;;;28.51;39.37;99052.31;5124871;27;20043;-70
2022/07/02 07:46:10;;;;;;;3.20;1.23;;;;;;;28.92;39.61;99060.44;5125614;28;20024;-70
2022/07/02 07:48:36;;;;;;;4.13;1.10;;;;;;;28.62;38.45;99052.28;5125323;28;20112;-70
2022/07/02 07:51:01;;;;;;;2.78;1.13;;;;;;;28.46;38.68;99043.75;5124492;27;20414;-70
2022/07/02 07:53:27;;;;;;;4.68;1.30;;;;;;;28.38;39.91;99040.78;5124645;27;20024;-70
2022/07/02 07:55:53;;;;;;;3.47;0.90;;;;;;;28.07;39.84;99041.69;5126270;28;20315;-70
2022/07/02 07:58:19;;;;;;;8.88;1.30;;;;;;;27.86;39.89;99029.94;5126285;27;20019;-70
2022/07/02 08:00:46;;;;;;;4.20;1.00;;;;;;;27.32;39.85;99018.22;5122003;27;20526;-69
2022/07/02 08:03:14;;;;;;;3.80;1.05;;;;;;;28.08;40.94;99042.53;5123819;27;20268;-70
2022/07/02 08:05:40;;;;;;;3.97;0.85;;;;;;;28.19;39.88;99046.03;5125437;28;20019;-70
2022/07/02 08:08:07;;;;;;;1.88;0.98;;;;;;;28.75;37.67;99044.81;5126885;28;20019;-73
2022/07/02 08:10:33;;;;;;;3.17;0.90;;;;;;;28.60;38.69;99040.69;5127114;28;20027;-71
2022/07/02 08:12:58;;;;;;;2.58;0.98;;;;;;;28.76;37.80;99046.50;5126367;28;20031;-73
2022/07/02 08:15:24;;;;;;;2.53;0.85;;;;;;;29.81;37.92;99038.91;5127001;28;20379;-72
2022/07/02 08:17:50;;;;;;;4.05;0.95;;;;;;;28.83;38.52;99042.31;5127310;28;20023;-72
2022/07/02 08:20:16;;;;;;;1.60;0.60;;;;;;;28.90;38.76;99038.06;5126776;28;20334;-72
2022/07/02 08:22:43;;;;;;;2.05;0.80;;;;;;;29.20;37.97;99024.53;5126994;28;20023;-72
2022/07/02 08:25:09;;;;;;;3.47;0.95;;;;;;;29.34;38.29;99042.28;5126903;28;20213;-72
2022/07/02 08:27:34;;;;;;;3.08;0.98;;;;;;;28.65;38.09;99027.63;5126464;28;20024;-72
2022/07/02 08:30:00;;;;;;;4.18;1.20;;;;;;;29.64;38.14;99019.72;5126826;28;20362;-72
2022/07/02 08:32:26;;;;;;;3.17;0.73;;;;;;;29.21;37.01;99009.97;5126622;28;20031;-71
2022/07/02 08:34:53;;;;;;;2.78;0.93;;;;;;;28.13;38.36;98997.88;5126576;28;20045;-71
2022/07/02 08:37:21;;;;;;;3.55;0.90;;;;;;;28.78;36.68;99014.72;5126692;28;20021;-71
2022/07/02 08:39:46;;;;;;;0.82;0.60;;;;;;;28.11;37.13;98999.81;5126425;28;20086;-71
2022/07/02 08:42:23;;;;;;;2.47;0.95;;;;;;;28.22;38.36;98997.06;5108379;28;20030;-71
2022/07/02 08:44:50;;;;;;;2.38;0.75;;;;;;;28.47;36.74;99007.53;5126723;28;20030;-70
2022/07/02 08:47:15;;;;;;;1.23;0.80;;;;;;;28.25;38.41;99002.22;5126099;28;20016;-70
2022/07/02 08:49:43;;;;;;;1.10;0.70;;;;;;;28.93;39.21;99005.28;5125491;28;20031;-70
2022/07/02 08:52:09;;;;;;;3.60;0.90;;;;;;;29.51;37.40;99005.53;5126787;28;20041;-70
2022/07/02 08:54:35;;;;;;;1.73;0.90;;;;;;;29.09;36.38;98999.38;5126596;28;20315;-70
2022/07/02 08:57:02;;;;;;;5.10;0.85;;;;;;;29.04;37.05;98996.19;5125995;28;20054;-70
2022/07/02 08:59:32;;;;;;;2.50;0.88;;;;;;;30.30;36.42;99010.78;5126233;28;20024;-72
2022/07/02 09:01:59;;;;;;;3.15;0.93;;;;;;;29.80;35.69;98990.19;5125821;28;20027;-70
2022/07/02 09:04:27;;;;;;;3.42;1.08;;;;;;;30.14;37.66;99011.34;5126182;28;20027;-70
2022/07/02 09:06:57;;;;;;;3.97;0.70;;;;;;;29.07;37.71;99006.78;5124644;28;20111;-70
2022/07/02 09:09:25;;;;;;;2.30;0.50;;;;;;;28.56;37.42;99009.47;5126181;28;20096;-71
2022/07/02 09:11:51;;;;;;;1.73;0.93;;;;;;;28.71;39.09;99005.44;5125768;28;20023;-71
2022/07/02 09:14:17;;;;;;;2.33;0.70;;;;;;;29.89;37.19;99011.91;5126168;28;20020;-71
2022/07/02 09:16:43;;;;;;;3.45;0.73;;;;;;;30.68;35.75;99005.31;5125914;28;20026;-70
2022/07/02 09:19:08;;;;;;;1.40;0.73;;;;;;;29.72;36.52;99003.59;5125678;28;20019;-70
2022/07/02 09:21:46;;;;;;;0.75;0.68;;;;;;;29.21;37.32;98982.84;5125674;28;20031;-70
2022/07/02 09:24:11;;;;;;;2.80;0.65;;;;;;;29.52;37.74;98990.94;5125645;28;20028;-70
2022/07/02 09:26:37;;;;;;;3.55;0.70;;;;;;;29.81;37.96;98991.88;5125581;28;20050;-70
2022/07/02 09:29:04;;;;;;;1.00;0.68;;;;;;;28.83;37.57;98982.69;5125498;28;20027;-70
2022/07/02 09:31:31;;;;;;;1.85;0.80;;;;;;;26.91;39.80;98972.00;5125662;28;20330;-70
2022/07/02 09:33:58;;;;;;;2.88;0.77;;;;;;;28.05;40.08;98989.50;5125471;28;20026;-70
2022/07/02 09:36:24;;;;;;;1.88;0.77;;;;;;;28.70;39.10;98987.44;5125250;28;20322;-70
2022/07/02 09:38:52;;;;;;;2.78;0.75;;;;;;;29.01;37.76;98983.75;5125633;28;20303;-72
2022/07/02 09:41:23;;;;;;;0.75;0.60;;;;;;;27.49;39.84;98974.41;5125259;28;20020;-71
2022/07/02 09:43:59;;;;;;;;;;;;;;;28.57;37.88;98984.06;5125942;28;20024;-71
2022/07/02 09:46:26;;;;;;;2.65;0.85;;;;;;;29.09;38.10;98983.97;5125537;28;19908;-70
2022/07/02 09:48:51;;;;;;;2.30;0.93;;;;;;;27.14;41.37;98963.75;5125032;28;20027;-70
2022/07/02 09:51:18;;;;;;;1.23;0.90;;;;;;;28.25;40.19;98990.53;5125157;28;20315;-71
2022/07/02 09:54:03;;;;;;;2.08;0.82;;;;;;;28.55;38.88;98983.38;5125213;28;20127;-71
2022/07/02 09:56:29;;;;;;;2.00;0.98;;;;;;;29.24;39.21;98984.44;5124246;28;20047;-71
2022/07/02 09:58:54;;;;;;;2.30;0.70;;;;;;;28.55;39.18;98983.38;5125120;28;20078;-71
2022/07/02 10:01:23;;;;;;;1.92;0.73;;;;;;;28.65;39.17;98978.00;5124852;28;20464;-71
2022/07/02 10:03:54;;;;;;;1.85;0.90;;;;;;;30.12;39.64;98988.06;5125040;28;20027;-71
2022/07/02 10:06:20;;;;;;;;;;;;;;;29.17;36.67;98970.56;5125174;28;20019;-70
2022/07/02 10:08:47;;;;;;;0.80;0.52;;;;;;;29.96;37.00;98982.34;5124724;28;19915;-70
2022/07/02 10:11:14;;;;;;;1.75;0.70;;;;;;;29.00;37.04;98952.22;5124827;28;20023;-71
2022/07/02 10:13:40;;;;;;;3.67;1.15;;;;;;;28.75;39.41;98968.06;5124474;28;20035;-71
2022/07/02 10:16:12;;;;;;;2.38;0.82;;;;;;;27.80;40.37;98968.19;5124701;28;20039;-71
2022/07/02 10:18:39;;;;;;;1.50;0.70;;;;;;;27.38;40.82;98960.06;5124742;28;20027;-71
2022/07/02 10:21:06;;;;;;;3.35;0.70;;;;;;;28.81;38.70;98960.28;5124517;28;20020;-71
2022/07/02 10:23:33;;;;;;;1.17;0.90;;;;;;;28.97;38.78;98968.75;5124456;28;20230;-71
2022/07/02 10:25:59;;;;;;;0.75;0.55;;;;;;;27.78;41.36;98963.91;5117728;28;20231;-71
2022/07/02 10:28:25;;;;;;;3.58;0.90;;;;;;;26.89;42.17;98957.78;5124382;28;20035;-71
2022/07/02 10:30:54;;;;;;;1.15;0.70;;;;;;;27.35;41.77;98963.03;5124615;28;20093;-71
2022/07/02 10:33:41;;;;;;;1.00;0.60;;;;;;;27.47;42.48;98964.72;5124509;28;20031;-70
2022/07/02 10:36:10;;;;;;;1.63;0.80;;;;;;;27.17;41.81;98962.66;5124719;28;20371;-70
2022/07/02 10:38:39;;;;;;;1.23;0.70;;;;;;;26.64;42.01;98963.41;5124492;28;20315;-70
2022/07/02 10:41:09;;;;;;;0.63;0.60;;;;;;;25.53;43.22;98945.09;5124186;28;20331;-70
2022/07/02 10:43:37;;;;;;;1.13;0.68;;;;;;;25.50;44.12;98950.72;5124271;28;20086;-70
2022/07/02 10:46:08;;;;;;;1.00;0.50;;;;;;;27.67;41.46;98972.91;5124441;28;20222;-70
2022/07/02 10:48:50;;;;;;;3.30;0.63;;;;;;;28.46;39.60;98977.88;5124557;28;20030;-70
2022/07/02 10:51:24;;;;;;;0.98;0.60;;;;;;;28.42;39.52;98955.59;5124808;28;20364;-70
2022/07/02 10:53:57;;;;;;;2.15;0.60;;;;;;;28.60;40.70;98962.13;5124240;28;20125;-70
2022/07/02 10:56:23;;;;;;;1.52;0.60;;;;;;;29.38;39.57;98956.09;5124058;28;20024;-70
2022/07/02 10:58:49;;;;;;;0.52;0.52;;;;;;;28.63;40.30;98942.91;5124240;28;20227;-70
2022/07/02 11:01:20;;;;;;;4.13;0.60;;;;;;;28.30;38.87;98940.41;5122987;28;20027;-70
2022/07/02 11:04:00;;;;;;;3.00;0.70;;;;;;;28.04;41.06;98949.91;5122732;28;20028;-70
2022/07/02 11:06:30;;;;;;;1.23;0.70;;;;;;;27.82;39.44;98933.75;5123382;28;20055;-70
2022/07/02 11:09:06;;;;;;;1.20;0.52;;;;;;;27.91;39.25;98941.13;5123051;28;20030;-70
2022/07/02 11:11:40;;;;;;;0.80;0.60;;;;;;;27.99;39.75;98930.50;5123984;28;20088;-70
2022/07/02 11:14:05;;;;;;;1.80;0.75;;;;;;;28.20;39.16;98939.50;5119254;28;20053;-71
2022/07/02 11:16:36;;;;;;;0.60;0.50;;;;;;;27.99;38.43;98927.78;5126911;28;20023;-71
2022/07/02 11:19:02;;;;;;;0.57;0.50;;;;;;;28.31;39.56;98933.16;5127182;28;20027;-70
2022/07/02 11:21:29;;;;;;;1.42;0.80;;;;;;;28.35;40.29;98938.16;5133783;27;20039;-70
2022/07/02 11:23:54;;;;;;;1.40;0.85;;;;;;;28.22;38.13;98923.97;5127163;28;20054;-71
2022/07/02 11:26:25;;;;;;;1.55;0.60;;;;;;;28.79;39.00;98927.00;5126828;28;20044;-71
2022/07/02 11:28:51;;;;;;;0.60;0.60;;;;;;;28.42;39.69;98916.81;5126450;28;20102;-70
2022/07/02 11:31:19;;;;;;;2.05;0.47;;;;;;;27.94;39.80;98911.09;5126863;28;20027;-70
2022/07/02 11:33:55;;;;;;;1.25;0.47;;;;;;;28.14;41.63;98912.94;5126941;28;20253;-71
2022/07/02 11:36:22;;;;;;;1.58;0.70;;;;;;;28.29;41.00;98900.81;5126775;28;20023;-71